Airport View

Enter AWOS ICAO identifier for current METAR.

ex. KFNL

KFQD 192345Z AUTO 00000KT 2 1/2SM HZ CLR 16/11 A3025 RMK AO2 LTG DSNT W

19 Oct 2020 23:45

Frequency: 118.275

Phone: 828-287-6498

Other Area AWOS: KEHO - KMRN - KAVL - KSPA

TAF KAVL 191730Z 1918/2018 17004KT P6SM FEW040 SCT250 FM200000 00000KT P6SM FEW250 FM200800 00000KT 5SM BR SCT005 FM201300 34004KT P6SM SCT250